createdAt,value
2018-02-01T00:00:41.200Z,98831.58
2018-02-01T00:01:47.094Z,98829.73
2018-02-01T00:02:53.235Z,98830.02
2018-02-01T00:03:59.434Z,98833.20
2018-02-01T00:05:08.736Z,98836.80
2018-02-01T00:06:15.376Z,98842.75
2018-02-01T00:07:21.268Z,98842.33
2018-02-01T00:08:27.507Z,98837.99
2018-02-01T00:09:33.673Z,98840.32
2018-02-01T00:10:39.837Z,98845.22
2018-02-01T00:11:45.998Z,98843.67
2018-02-01T00:12:52.168Z,98845.69
2018-02-01T00:13:58.328Z,98839.27
2018-02-01T00:15:04.174Z,98837.92
2018-02-01T00:16:10.317Z,98843.07
2018-02-01T00:17:16.502Z,98836.93
2018-02-01T00:18:22.661Z,98838.34
2018-02-01T00:19:28.828Z,98847.79
2018-02-01T00:20:35.003Z,98840.77
2018-02-01T00:21:41.911Z,98847.37
2018-02-01T00:22:48.089Z,98849.45
2018-02-01T00:23:54.256Z,98855.89
2018-02-01T00:25:00.420Z,98854.70
2018-02-01T00:26:06.534Z,98855.59
2018-02-01T00:27:12.703Z,98858.20
2018-02-01T00:28:18.843Z,98851.03
2018-02-01T00:29:24.962Z,98857.37
2018-02-01T00:30:31.088Z,98850.33
2018-02-01T00:31:37.298Z,98845.95
2018-02-01T00:32:43.458Z,98858.05
2018-02-01T00:33:49.609Z,98850.75
2018-02-01T00:34:55.801Z,98850.54
2018-02-01T00:36:05.821Z,98848.45
2018-02-01T00:37:11.786Z,98853.59
2018-02-01T00:38:17.869Z,98849.30
2018-02-01T00:39:23.836Z,98845.88
2018-02-01T00:40:30.003Z,98847.39
2018-02-01T00:41:36.164Z,98845.84
2018-02-01T00:42:43.675Z,98845.91
2018-02-01T00:43:49.457Z,98839.53
2018-02-01T00:44:55.960Z,98837.07
2018-02-01T00:46:02.055Z,98837.45
2018-02-01T00:47:08.197Z,98838.05
2018-02-01T00:48:14.312Z,98829.16
2018-02-01T00:49:20.492Z,98833.20
2018-02-01T00:50:26.664Z,98833.67
2018-02-01T00:51:32.855Z,98834.37
2018-02-01T00:52:38.992Z,98828.63
2018-02-01T00:53:51.035Z,98830.91
2018-02-01T00:54:57.229Z,98828.55
2018-02-01T00:56:03.359Z,98836.52
2018-02-01T00:57:09.483Z,98837.19
2018-02-01T00:58:15.602Z,98833.27
2018-02-01T00:59:21.749Z,98833.52
2018-02-01T01:00:27.954Z,98838.13
2018-02-01T01:01:34.072Z,98834.54
2018-02-01T01:02:40.189Z,98838.49
2018-02-01T01:03:46.351Z,98838.77
2018-02-01T01:04:58.235Z,98838.41
2018-02-01T01:06:04.406Z,98837.20
2018-02-01T01:07:10.533Z,98842.47
2018-02-01T01:08:15.984Z,98846.39
2018-02-01T01:09:22.171Z,98845.98
2018-02-01T01:10:28.325Z,98844.81
2018-02-01T01:11:34.436Z,98836.19
2018-02-01T01:12:40.527Z,98836.81
2018-02-01T01:13:46.606Z,98826.98
2018-02-01T01:14:52.722Z,98828.66
2018-02-01T01:15:58.906Z,98834.39
2018-02-01T01:17:05.090Z,98841.66
2018-02-01T01:18:13.350Z,98838.98
2018-02-01T01:19:19.767Z,98844.36
2018-02-01T01:20:26.045Z,98842.25
2018-02-01T01:21:32.749Z,98848.08
2018-02-01T01:22:40.653Z,98846.55
2018-02-01T01:23:47.437Z,98840.00
2018-02-01T01:24:53.620Z,98839.49
2018-02-01T01:25:59.893Z,98841.00
2018-02-01T01:27:06.057Z,98839.53
2018-02-01T01:28:12.204Z,98845.95
2018-02-01T01:29:18.088Z,98844.02
2018-02-01T01:30:24.237Z,98845.52
2018-02-01T01:31:30.418Z,98847.44
2018-02-01T01:32:36.539Z,98840.36
2018-02-01T01:33:42.664Z,98847.34
2018-02-01T01:34:48.761Z,98851.91
2018-02-01T01:35:54.874Z,98846.88
2018-02-01T01:37:00.978Z,98853.05
2018-02-01T01:38:12.729Z,98858.82
2018-02-01T01:39:18.554Z,98851.62
2018-02-01T01:40:24.694Z,98854.34
2018-02-01T01:41:30.804Z,98846.36
2018-02-01T01:42:36.904Z,98843.68
2018-02-01T01:43:43.069Z,98851.80
2018-02-01T01:44:49.424Z,98850.45
2018-02-01T01:46:06.651Z,98854.41
2018-02-01T01:47:13.745Z,98854.34
2018-02-01T01:48:20.883Z,98850.59
2018-02-01T01:49:27.069Z,98854.18
2018-02-01T01:50:36.251Z,98859.04
2018-02-01T01:51:42.454Z,98865.98
2018-02-01T01:52:53.000Z,98860.11
2018-02-01T01:53:59.287Z,98856.16
2018-02-01T01:55:06.449Z,98856.33
2018-02-01T01:56:12.594Z,98858.20
2018-02-01T01:57:20.716Z,98854.94
2018-02-01T01:58:26.865Z,98847.11
2018-02-01T01:59:33.048Z,98841.84
2018-02-01T02:00:39.828Z,98849.59
2018-02-01T02:01:45.004Z,98847.64
2018-02-01T02:02:51.172Z,98849.23
2018-02-01T02:03:57.281Z,98851.84
2018-02-01T02:05:03.396Z,98849.95
2018-02-01T02:06:09.579Z,98851.77
2018-02-01T02:07:16.616Z,98845.06
2018-02-01T02:08:22.380Z,98842.72
2018-02-01T02:09:27.841Z,98851.29
2018-02-01T02:10:33.991Z,98847.57
2018-02-01T02:11:40.166Z,98844.90
2018-02-01T02:12:46.343Z,98850.05
2018-02-01T02:13:53.866Z,98842.35
2018-02-01T02:15:00.041Z,98855.02
2018-02-01T02:16:05.915Z,98855.63
2018-02-01T02:17:12.764Z,98851.69
2018-02-01T02:18:18.938Z,98852.73
2018-02-01T02:19:24.868Z,98852.34
2018-02-01T02:20:31.754Z,98855.38
2018-02-01T02:21:37.550Z,98865.13
2018-02-01T02:22:49.226Z,98855.84
2018-02-01T02:23:56.221Z,98859.08
2018-02-01T02:25:02.444Z,98859.39
2018-02-01T02:26:08.615Z,98865.30
2018-02-01T02:27:14.688Z,98858.97
2018-02-01T02:28:20.836Z,98856.81
2018-02-01T02:29:26.673Z,98852.55
2018-02-01T02:30:32.834Z,98854.27
2018-02-01T02:31:38.989Z,98855.63
2018-02-01T02:32:45.693Z,98852.02
2018-02-01T02:33:51.886Z,98858.77
2018-02-01T02:34:57.083Z,98860.26
2018-02-01T02:36:03.201Z,98856.52
2018-02-01T02:37:09.001Z,98862.37
2018-02-01T02:38:15.114Z,98861.09
2018-02-01T02:39:21.249Z,98859.01
2018-02-01T02:40:27.412Z,98856.26
2018-02-01T02:41:32.849Z,98855.84
2018-02-01T02:42:38.289Z,98853.48
2018-02-01T02:43:45.249Z,98845.09
2018-02-01T02:44:51.402Z,98857.41
2018-02-01T02:45:57.540Z,98856.33
2018-02-01T02:47:03.461Z,98860.02
2018-02-01T02:48:11.161Z,98858.03
2018-02-01T02:49:17.267Z,98855.33
2018-02-01T02:50:23.421Z,98857.06
2018-02-01T02:51:29.634Z,98858.47
2018-02-01T02:52:35.787Z,98857.77
2018-02-01T02:53:41.993Z,98856.94
2018-02-01T02:54:48.132Z,98856.90
2018-02-01T02:55:54.268Z,98858.70
2018-02-01T02:57:00.413Z,98849.85
2018-02-01T02:58:06.528Z,98855.36
2018-02-01T02:59:12.690Z,98855.00
2018-02-01T03:00:18.789Z,98859.33
2018-02-01T03:01:25.924Z,98852.13
2018-02-01T03:02:32.045Z,98850.73
2018-02-01T03:03:38.011Z,98856.73
2018-02-01T03:04:44.125Z,98856.61
2018-02-01T03:05:50.231Z,98864.20
2018-02-01T03:06:56.353Z,98861.91
2018-02-01T03:08:02.535Z,98866.95
2018-02-01T03:09:08.459Z,98864.08
2018-02-01T03:10:14.603Z,98860.30
2018-02-01T03:11:20.812Z,98856.42
2018-02-01T03:12:26.901Z,98855.27
2018-02-01T03:13:33.049Z,98860.66
2018-02-01T03:14:40.059Z,98867.08
2018-02-01T03:15:46.191Z,98862.27
2018-02-01T03:16:52.296Z,98867.78
2018-02-01T03:17:58.402Z,98868.70
2018-02-01T03:19:04.535Z,98863.66
2018-02-01T03:20:10.689Z,98857.30
2018-02-01T03:21:16.786Z,98870.89
2018-02-01T03:22:22.933Z,98864.78
2018-02-01T03:23:29.173Z,98871.89
2018-02-01T03:24:35.303Z,98863.05
2018-02-01T03:25:41.473Z,98867.50
2018-02-01T03:26:47.603Z,98867.98
2018-02-01T03:27:58.833Z,98863.80
2018-02-01T03:29:04.996Z,98863.48
2018-02-01T03:30:11.097Z,98858.72
2018-02-01T03:31:17.274Z,98865.17
2018-02-01T03:32:26.413Z,98865.56
2018-02-01T03:33:32.515Z,98875.39
2018-02-01T03:34:39.413Z,98872.92
2018-02-01T03:35:45.607Z,98870.83
2018-02-01T03:36:51.711Z,98870.83
2018-02-01T03:37:57.825Z,98875.20
2018-02-01T03:39:04.488Z,98878.11
2018-02-01T03:40:10.650Z,98882.75
2018-02-01T03:41:16.530Z,98876.55
2018-02-01T03:42:22.657Z,98881.66
2018-02-01T03:43:28.749Z,98879.70
2018-02-01T03:44:35.130Z,98879.79
2018-02-01T03:45:41.282Z,98880.48
2018-02-01T03:46:48.651Z,98888.63
2018-02-01T03:47:54.752Z,98887.90
2018-02-01T03:49:00.884Z,98888.17
2018-02-01T03:50:07.020Z,98885.47
2018-02-01T03:51:15.225Z,98884.08
2018-02-01T03:52:21.340Z,98897.45
2018-02-01T03:53:27.515Z,98890.86
2018-02-01T03:54:33.684Z,98893.13
2018-02-01T03:55:39.813Z,98904.05
2018-02-01T03:56:45.934Z,98901.92
2018-02-01T03:57:52.161Z,98901.98
2018-02-01T03:58:57.540Z,98909.86
2018-02-01T04:00:03.987Z,98912.46
2018-02-01T04:01:09.832Z,98915.34
2018-02-01T04:02:15.929Z,98913.30
2018-02-01T04:03:21.409Z,98908.91
2018-02-01T04:04:27.560Z,98915.14
2018-02-01T04:05:33.060Z,98916.72
2018-02-01T04:06:39.211Z,98915.66
2018-02-01T04:07:45.110Z,98912.36
2018-02-01T04:08:51.309Z,98923.52
2018-02-01T04:09:57.075Z,98920.55
2018-02-01T04:11:03.179Z,98915.09
2018-02-01T04:12:09.309Z,98916.30
2018-02-01T04:13:20.472Z,98911.32
2018-02-01T04:14:26.655Z,98913.14
2018-02-01T04:15:32.790Z,98915.38
2018-02-01T04:16:38.258Z,98920.09
2018-02-01T04:17:44.412Z,98918.91
2018-02-01T04:18:50.502Z,98915.67
2018-02-01T04:19:56.616Z,98917.75
2018-02-01T04:21:02.754Z,98918.41
2018-02-01T04:22:08.864Z,98917.63
2018-02-01T04:23:15.005Z,98925.10
2018-02-01T04:24:21.118Z,98916.60
2018-02-01T04:25:28.276Z,98912.23
2018-02-01T04:26:34.389Z,98920.53
2018-02-01T04:27:40.464Z,98922.03
2018-02-01T04:28:47.205Z,98917.81
2018-02-01T04:29:53.990Z,98923.78
2018-02-01T04:31:00.117Z,98923.77
2018-02-01T04:32:06.239Z,98914.97
2018-02-01T04:33:12.350Z,98915.30
2018-02-01T04:34:20.458Z,98914.50
2018-02-01T04:35:27.668Z,98919.95
2018-02-01T04:36:33.071Z,98923.75
2018-02-01T04:37:39.213Z,98915.16
2018-02-01T04:38:45.436Z,98914.31
2018-02-01T04:39:51.542Z,98911.80
2018-02-01T04:40:57.684Z,98910.20
2018-02-01T04:42:05.622Z,98904.14
2018-02-01T04:43:11.420Z,98906.13
2018-02-01T04:44:17.198Z,98903.65
2018-02-01T04:45:23.325Z,98897.41
2018-02-01T04:46:30.022Z,98897.05
2018-02-01T04:47:37.746Z,98893.88
2018-02-01T04:48:44.310Z,98897.92
2018-02-01T04:49:50.527Z,98908.92
2018-02-01T04:50:56.771Z,98906.97
2018-02-01T04:52:04.851Z,98903.55
2018-02-01T04:53:11.031Z,98906.78
2018-02-01T04:54:16.561Z,98904.48
2018-02-01T04:55:26.074Z,98909.13
2018-02-01T04:56:34.742Z,98906.41
2018-02-01T04:57:42.959Z,98909.73
2018-02-01T04:58:49.110Z,98909.73
2018-02-01T04:59:55.636Z,98903.69
2018-02-01T05:01:02.157Z,98902.19
2018-02-01T05:02:08.654Z,98896.22
2018-02-01T05:03:15.006Z,98897.50
2018-02-01T05:04:20.903Z,98904.90
2018-02-01T05:05:26.499Z,98908.31
2018-02-01T05:06:32.853Z,98912.79
2018-02-01T05:07:39.201Z,98916.38
2018-02-01T05:08:45.431Z,98917.65
2018-02-01T05:09:51.263Z,98920.19
2018-02-01T05:10:57.392Z,98920.19
2018-02-01T05:12:03.366Z,98913.55
2018-02-01T05:13:09.588Z,98913.91
2018-02-01T05:14:15.709Z,98917.73
2018-02-01T05:15:21.839Z,98920.61
2018-02-01T05:16:28.363Z,98918.69
2018-02-01T05:17:34.316Z,98924.70
2018-02-01T05:18:40.960Z,98925.81
2018-02-01T05:19:47.084Z,98925.77
2018-02-01T05:20:53.315Z,98928.86
2018-02-01T05:21:59.914Z,98930.78
2018-02-01T05:23:06.280Z,98935.23
2018-02-01T05:24:12.444Z,98937.69
2018-02-01T05:25:18.557Z,98945.34
2018-02-01T05:26:24.692Z,98946.09
2018-02-01T05:27:30.816Z,98943.92
2018-02-01T05:28:36.934Z,98943.36
2018-02-01T05:29:43.093Z,98949.78
2018-02-01T05:30:49.240Z,98945.62
2018-02-01T05:31:55.376Z,98939.38
2018-02-01T05:33:01.612Z,98950.02
2018-02-01T05:34:07.737Z,98951.41
2018-02-01T05:35:13.652Z,98956.37
2018-02-01T05:36:19.585Z,98952.17
2018-02-01T05:37:25.355Z,98963.00
2018-02-01T05:38:31.508Z,98958.76
2018-02-01T05:39:37.687Z,98969.88
2018-02-01T05:40:43.795Z,98968.80
2018-02-01T05:41:49.696Z,98967.59
2018-02-01T05:42:55.782Z,98963.92
2018-02-01T05:44:01.897Z,98969.41
2018-02-01T05:45:08.105Z,98970.17
2018-02-01T05:46:15.069Z,98966.80
2018-02-01T05:47:21.220Z,98961.26
2018-02-01T05:48:27.356Z,98964.88
2018-02-01T05:49:33.501Z,98962.28
2018-02-01T05:50:39.682Z,98973.12
2018-02-01T05:51:45.597Z,98967.33
2018-02-01T05:52:51.687Z,98965.98
2018-02-01T05:53:57.826Z,98969.27
2018-02-01T05:55:03.956Z,98966.17
2018-02-01T05:56:10.136Z,98969.73
2018-02-01T05:57:16.292Z,98969.49
2018-02-01T05:58:22.511Z,98968.01
2018-02-01T05:59:28.624Z,98964.98
2018-02-01T06:00:34.725Z,98958.68
2018-02-01T06:01:40.180Z,98962.94
2018-02-01T06:02:46.781Z,98957.30
2018-02-01T06:03:52.960Z,98956.17
2018-02-01T06:04:59.114Z,98961.02
2018-02-01T06:06:05.239Z,98964.68
2018-02-01T06:07:11.360Z,98959.28
2018-02-01T06:08:17.676Z,98964.77
2018-02-01T06:09:23.210Z,98970.70
2018-02-01T06:10:35.410Z,98969.67
2018-02-01T06:11:42.398Z,98967.58
2018-02-01T06:12:48.557Z,98977.13
2018-02-01T06:13:54.648Z,98977.49
2018-02-01T06:15:00.786Z,98980.91
2018-02-01T06:16:06.939Z,98982.16
2018-02-01T06:17:12.897Z,98984.68
2018-02-01T06:18:18.948Z,98985.23
2018-02-01T06:19:25.129Z,98988.00
2018-02-01T06:20:31.241Z,98983.09
2018-02-01T06:21:37.402Z,98983.47
2018-02-01T06:22:43.576Z,98988.10
2018-02-01T06:23:49.327Z,98988.82
2018-02-01T06:24:55.603Z,98993.19
2018-02-01T06:26:02.038Z,98996.38
2018-02-01T06:27:08.160Z,98999.39
2018-02-01T06:28:14.334Z,98992.92
2018-02-01T06:29:20.492Z,98990.62
2018-02-01T06:30:26.677Z,98991.05
2018-02-01T06:31:33.199Z,98990.14
2018-02-01T06:32:39.335Z,98986.36
2018-02-01T06:33:45.477Z,98983.20
2018-02-01T06:34:51.673Z,98987.39
2018-02-01T06:35:57.820Z,98980.76
2018-02-01T06:37:03.968Z,98984.66
2018-02-01T06:38:10.163Z,98982.88
2018-02-01T06:39:16.475Z,98981.02
2018-02-01T06:40:22.636Z,98977.89
2018-02-01T06:41:28.978Z,98983.04
2018-02-01T06:42:34.455Z,98981.47
2018-02-01T06:43:45.837Z,98983.30
2018-02-01T06:44:51.940Z,98979.22
2018-02-01T06:45:58.144Z,98980.05
2018-02-01T06:47:03.615Z,98979.05
2018-02-01T06:48:09.541Z,98972.41
2018-02-01T06:49:15.668Z,98966.42
2018-02-01T06:50:21.881Z,98974.42
2018-02-01T06:51:28.060Z,98976.30
2018-02-01T06:52:34.152Z,98982.98
2018-02-01T06:53:39.947Z,98980.73
2018-02-01T06:54:46.194Z,98983.94
2018-02-01T06:55:52.298Z,98977.33
2018-02-01T06:56:58.483Z,98973.70
2018-02-01T06:58:04.727Z,98985.64
2018-02-01T06:59:12.141Z,98990.78
2018-02-01T07:00:18.245Z,98988.08
2018-02-01T07:01:25.126Z,98987.23
2018-02-01T07:02:31.275Z,98998.34
2018-02-01T07:03:37.421Z,99001.23
2018-02-01T07:04:43.608Z,99004.43
2018-02-01T07:05:49.744Z,99007.43
2018-02-01T07:06:55.867Z,99009.90
2018-02-01T07:08:01.617Z,99011.91
2018-02-01T07:09:07.542Z,99007.39
2018-02-01T07:10:13.647Z,99013.83
2018-02-01T07:11:19.782Z,99018.92
2018-02-01T07:12:25.748Z,99015.30
2018-02-01T07:13:31.855Z,99024.48
2018-02-01T07:14:37.992Z,99023.76
2018-02-01T07:15:44.144Z,99020.27
2018-02-01T07:16:50.297Z,99021.20
2018-02-01T07:17:56.449Z,99017.84
2018-02-01T07:19:02.573Z,99022.73
2018-02-01T07:20:08.752Z,99027.48
2018-02-01T07:21:14.888Z,99021.14
2018-02-01T07:22:21.175Z,99022.09
2018-02-01T07:23:27.383Z,99017.55
2018-02-01T07:24:33.545Z,99021.03
2018-02-01T07:25:39.749Z,99019.71
2018-02-01T07:26:45.960Z,99015.58
2018-02-01T07:27:52.982Z,99011.64
2018-02-01T07:28:59.198Z,99011.35
2018-02-01T07:30:05.353Z,99018.46
2018-02-01T07:31:12.036Z,99019.28
2018-02-01T07:32:18.208Z,99015.12
2018-02-01T07:33:24.441Z,99023.20
2018-02-01T07:34:30.555Z,99024.40
2018-02-01T07:35:36.750Z,99029.66
2018-02-01T07:36:42.884Z,99030.94
2018-02-01T07:37:48.996Z,99033.99
2018-02-01T07:38:55.095Z,99032.17
2018-02-01T07:40:01.236Z,99027.98
2018-02-01T07:41:07.368Z,99029.12
2018-02-01T07:42:14.481Z,99028.70
2018-02-01T07:43:20.580Z,99037.42
2018-02-01T07:44:26.500Z,99024.97
2018-02-01T07:57:35.206Z,99048.66
2018-02-01T07:58:41.355Z,99044.97
2018-02-01T07:59:47.487Z,99057.66
2018-02-01T08:00:53.409Z,99051.58
2018-02-01T08:01:59.530Z,99056.89
2018-02-01T08:03:05.609Z,99063.81
2018-02-01T08:04:11.714Z,99068.59
2018-02-01T08:05:19.544Z,99062.81
2018-02-01T08:06:25.684Z,99070.63
2018-02-01T08:07:31.793Z,99068.48
2018-02-01T08:08:37.420Z,99067.27
2018-02-01T08:09:43.519Z,99074.01
2018-02-01T08:10:49.675Z,99068.77
2018-02-01T08:11:55.768Z,99071.98
2018-02-01T08:13:01.902Z,99071.01
2018-02-01T08:14:08.245Z,99072.39
2018-02-01T08:15:14.357Z,99066.11
2018-02-01T08:16:20.500Z,99064.87
2018-02-01T08:17:26.448Z,99066.79
2018-02-01T08:18:32.658Z,99075.56
2018-02-01T08:19:38.828Z,99070.39
2018-02-01T08:20:45.231Z,99074.91
2018-02-01T08:21:51.396Z,99072.85
2018-02-01T08:22:57.514Z,99071.66
2018-02-01T08:24:03.611Z,99071.00
2018-02-01T08:25:09.767Z,99075.80
2018-02-01T08:26:15.889Z,99077.80
2018-02-01T08:27:22.030Z,99072.75
2018-02-01T08:28:28.225Z,99073.04
2018-02-01T08:29:34.299Z,99070.37
2018-02-01T08:30:40.401Z,99064.75
2018-02-01T08:31:46.486Z,99066.80
2018-02-01T08:32:52.664Z,99065.73
2018-02-01T08:33:58.606Z,99066.95
2018-02-01T08:35:04.346Z,99068.45
2018-02-01T08:36:10.498Z,99064.37
2018-02-01T08:37:16.668Z,99066.95
2018-02-01T08:38:22.977Z,99065.22
2018-02-01T08:39:29.163Z,99064.76
2018-02-01T08:40:35.335Z,99057.86
2018-02-01T08:41:41.449Z,99052.42
2018-02-01T08:42:47.574Z,99051.05
2018-02-01T08:43:52.773Z,99049.34
2018-02-01T08:44:59.139Z,99047.75
2018-02-01T08:46:05.226Z,99050.77
2018-02-01T08:47:11.376Z,99054.67
2018-02-01T08:48:17.501Z,99053.38
2018-02-01T08:49:23.594Z,99050.20
2018-02-01T08:50:29.749Z,99055.58
2018-02-01T08:51:35.899Z,99060.06
2018-02-01T08:52:42.072Z,99067.78
2018-02-01T08:53:47.973Z,99060.41
2018-02-01T08:54:54.113Z,99063.16
2018-02-01T08:55:59.567Z,99063.75
2018-02-01T08:57:05.662Z,99070.67
2018-02-01T08:58:11.859Z,99066.64
2018-02-01T08:59:18.192Z,99060.28
2018-02-01T09:00:24.096Z,99068.55
2018-02-01T09:01:30.208Z,99064.78
2018-02-01T09:02:36.277Z,99063.53
2018-02-01T09:03:42.420Z,99060.91
2018-02-01T09:04:48.590Z,99065.09
2018-02-01T09:05:54.712Z,99068.97
2018-02-01T09:07:00.877Z,99058.38
2018-02-01T09:08:06.309Z,99061.70
2018-02-01T09:09:12.412Z,99059.81
2018-02-01T09:10:18.540Z,99065.47
2018-02-01T09:11:24.642Z,99069.25
2018-02-01T09:12:30.801Z,99070.44
2018-02-01T09:13:36.929Z,99077.18
2018-02-01T09:14:42.408Z,99071.78
2018-02-01T09:15:48.571Z,99075.02
2018-02-01T09:16:54.661Z,99080.77
2018-02-01T09:18:00.805Z,99077.19
2018-02-01T09:19:07.046Z,99088.16
2018-02-01T09:20:13.176Z,99083.98
2018-02-01T09:21:19.313Z,99085.46
2018-02-01T09:22:25.485Z,99092.77
2018-02-01T09:23:31.625Z,99084.14
2018-02-01T09:24:37.723Z,99093.58
2018-02-01T09:25:43.860Z,99097.32
2018-02-01T09:26:50.015Z,99091.36
2018-02-01T09:27:56.176Z,99086.84
2018-02-01T09:29:02.365Z,99082.27
2018-02-01T09:30:08.262Z,99085.39
2018-02-01T09:31:14.402Z,99084.24
2018-02-01T09:32:20.612Z,99083.23
2018-02-01T09:33:26.715Z,99074.04
2018-02-01T09:34:32.875Z,99086.85
2018-02-01T09:35:39.044Z,99074.69
2018-02-01T09:36:45.174Z,99077.38
2018-02-01T09:37:51.255Z,99073.73
2018-02-01T09:38:57.365Z,99075.34
2018-02-01T09:40:03.191Z,99073.98
2018-02-01T09:41:17.146Z,99076.33
2018-02-01T09:42:25.562Z,99079.31
2018-02-01T09:43:33.167Z,99077.61
2018-02-01T09:44:39.272Z,99089.03
2018-02-01T09:45:45.627Z,99086.30
2018-02-01T09:46:51.767Z,99080.81
2018-02-01T09:47:57.586Z,99088.05
2018-02-01T09:50:42.988Z,99089.18
2018-02-01T09:51:49.143Z,99087.55
2018-02-01T09:52:55.051Z,99087.80
2018-02-01T09:54:01.221Z,99087.84
2018-02-01T09:55:07.323Z,99086.75
2018-02-01T09:56:13.206Z,99086.17
2018-02-01T09:57:19.307Z,99088.30
2018-02-01T09:58:25.440Z,99083.33
2018-02-01T09:59:31.613Z,99090.08
2018-02-01T10:00:37.452Z,99088.76
2018-02-01T10:01:43.586Z,99094.06
2018-02-01T10:02:49.726Z,99095.42
2018-02-01T10:03:55.556Z,99094.69
2018-02-01T10:05:01.737Z,99091.41
2018-02-01T10:06:07.624Z,99087.59
2018-02-01T10:07:13.786Z,99082.95
2018-02-01T10:08:20.083Z,99087.42
2018-02-01T10:09:26.230Z,99082.59
2018-02-01T10:10:32.417Z,99081.38
2018-02-01T10:11:38.243Z,99079.54
2018-02-01T10:12:44.061Z,99080.84
2018-02-01T10:13:49.908Z,99073.58
2018-02-01T10:14:56.023Z,99076.24
2018-02-01T10:16:02.219Z,99076.39
2018-02-01T10:17:08.326Z,99068.88
2018-02-01T10:18:14.137Z,99076.16
2018-02-01T10:19:20.275Z,99075.75
2018-02-01T10:20:25.830Z,99073.69
2018-02-01T10:21:31.929Z,99075.32
2018-02-01T10:22:38.105Z,99075.27
2018-02-01T10:23:44.278Z,99071.64
2018-02-01T10:24:50.417Z,99066.33
2018-02-01T10:25:56.568Z,99068.88
2018-02-01T10:27:02.703Z,99064.60
2018-02-01T10:28:08.804Z,99071.55
2018-02-01T10:29:14.973Z,99072.81
2018-02-01T10:30:20.831Z,99065.88
2018-02-01T10:31:26.706Z,99072.59
2018-02-01T10:32:32.529Z,99077.94
2018-02-01T10:33:38.677Z,99082.36
2018-02-01T10:34:44.787Z,99084.87
2018-02-01T10:35:50.928Z,99080.08
2018-02-01T10:36:57.204Z,99079.63
2018-02-01T10:38:02.733Z,99086.81
2018-02-01T10:39:08.612Z,99082.81
2018-02-01T10:40:14.760Z,99074.89
2018-02-01T10:41:20.849Z,99080.86
2018-02-01T10:42:26.992Z,99073.64
2018-02-01T10:43:32.810Z,99083.43
2018-02-01T10:44:44.937Z,99083.87
2018-02-01T10:45:51.094Z,99087.69
2018-02-01T10:46:57.476Z,99079.91
2018-02-01T10:48:03.580Z,99080.36
2018-02-01T10:49:09.693Z,99073.78
2018-02-01T10:50:15.813Z,99076.17
2018-02-01T10:51:23.652Z,99077.00
2018-02-01T10:52:29.823Z,99078.05
2018-02-01T10:53:36.073Z,99076.06
2018-02-01T10:54:42.217Z,99083.52
2018-02-01T10:55:48.347Z,99075.55
2018-02-01T10:56:54.152Z,99073.47
2018-02-01T10:58:00.248Z,99073.83
2018-02-01T10:59:06.454Z,99074.05
2018-02-01T11:00:12.318Z,99082.78
2018-02-01T11:01:18.364Z,99083.41
2018-02-01T11:02:24.492Z,99084.55
2018-02-01T11:03:30.651Z,99085.87
2018-02-01T11:04:36.569Z,99078.15
2018-02-01T11:05:42.981Z,99081.20
2018-02-01T11:06:48.831Z,99068.69
2018-02-01T11:07:54.981Z,99069.51
2018-02-01T11:09:00.820Z,99063.87
2018-02-01T11:10:06.625Z,99071.81
2018-02-01T11:11:12.480Z,99071.91
2018-02-01T11:12:18.623Z,99067.67
2018-02-01T11:13:24.467Z,99072.97
2018-02-01T11:14:30.316Z,99073.24
2018-02-01T11:15:36.470Z,99070.19
2018-02-01T11:16:42.296Z,99067.97
2018-02-01T11:17:48.195Z,99070.45
2018-02-01T11:18:54.050Z,99067.57
2018-02-01T11:20:04.790Z,99075.55
2018-02-01T11:21:10.935Z,99080.52
2018-02-01T11:22:17.081Z,99077.85
2018-02-01T11:23:22.932Z,99074.03
2018-02-01T11:24:29.075Z,99080.34
2018-02-01T11:25:34.943Z,99077.70
2018-02-01T11:26:41.080Z,99081.22
2018-02-01T11:27:47.256Z,99080.14
2018-02-01T11:28:53.353Z,99082.91
2018-02-01T11:29:59.152Z,99084.39
2018-02-01T11:31:05.061Z,99080.57
2018-02-01T11:32:11.193Z,99075.95
2018-02-01T11:33:17.045Z,99075.61
2018-02-01T11:34:23.241Z,99077.64
2018-02-01T11:35:29.431Z,99076.38
2018-02-01T11:36:35.551Z,99074.56
2018-02-01T11:37:41.702Z,99076.58
2018-02-01T11:38:47.800Z,99082.39
2018-02-01T11:39:53.631Z,99083.52
2018-02-01T11:40:59.702Z,99077.38
2018-02-01T11:42:05.884Z,99078.84
2018-02-01T11:43:11.709Z,99081.98
2018-02-01T11:44:17.836Z,99079.52
2018-02-01T11:45:24.005Z,99072.36
2018-02-01T11:46:29.981Z,99073.44
2018-02-01T11:47:35.853Z,99072.70
2018-02-01T11:48:42.002Z,99070.85
2018-02-01T11:49:48.183Z,99060.16
2018-02-01T11:50:54.010Z,99072.20
2018-02-01T11:52:00.425Z,99073.05
2018-02-01T11:53:06.595Z,99066.20
2018-02-01T11:54:12.768Z,99073.95
2018-02-01T11:55:18.910Z,99070.74
2018-02-01T11:56:26.349Z,99071.30
2018-02-01T11:57:32.553Z,99074.19
2018-02-01T11:58:38.692Z,99071.19
2018-02-01T11:59:43.875Z,99070.24
2018-02-01T12:00:49.976Z,99065.44
2018-02-01T12:01:56.144Z,99060.22
2018-02-01T12:03:02.324Z,99070.34
2018-02-01T12:04:08.411Z,99065.33
2018-02-01T12:05:14.533Z,99061.63
2018-02-01T12:06:20.621Z,99052.63
2018-02-01T12:07:26.484Z,99059.16
2018-02-01T12:08:32.633Z,99058.48
2018-02-01T12:09:38.506Z,99056.85
2018-02-01T12:10:44.011Z,99051.44
2018-02-01T12:11:49.879Z,99051.20
2018-02-01T12:12:55.739Z,99053.41
2018-02-01T12:14:01.613Z,99044.88
2018-02-01T12:15:07.487Z,99058.71
2018-02-01T12:16:13.399Z,99061.08
2018-02-01T12:17:19.196Z,99058.55
2018-02-01T12:18:25.293Z,99062.66
2018-02-01T12:19:31.147Z,99065.20
2018-02-01T12:20:36.630Z,99061.77
2018-02-01T12:21:42.784Z,99060.77
2018-02-01T12:22:48.932Z,99061.80
2018-02-01T12:23:55.132Z,99063.08
2018-02-01T12:25:01.003Z,99061.09
2018-02-01T12:26:06.883Z,99051.70
2018-02-01T12:27:13.276Z,99056.06
2018-02-01T12:28:19.281Z,99054.60
2018-02-01T12:29:25.183Z,99056.75
2018-02-01T12:30:31.030Z,99059.20
2018-02-01T12:31:36.928Z,99052.77
2018-02-01T12:32:42.737Z,99058.97
2018-02-01T12:33:54.000Z,99060.38
2018-02-01T12:34:59.852Z,99057.53
2018-02-01T12:36:05.672Z,99045.27
2018-02-01T12:37:11.505Z,99050.44
2018-02-01T12:38:17.341Z,99047.56
2018-02-01T12:39:23.264Z,99045.23
2018-02-01T12:40:29.129Z,99034.94
2018-02-01T12:41:34.976Z,99033.33
2018-02-01T12:42:40.815Z,99028.23
2018-02-01T12:43:46.721Z,99026.25
2018-02-01T12:44:52.615Z,99025.52
2018-02-01T12:45:58.492Z,99019.28
2018-02-01T12:47:04.295Z,99028.27
2018-02-01T12:48:10.129Z,99024.69
2018-02-01T12:49:16.046Z,99021.67
2018-02-01T12:50:21.923Z,99027.22
2018-02-01T12:51:27.790Z,99021.82
2018-02-01T12:52:33.616Z,99023.63
2018-02-01T12:53:39.475Z,99024.17
2018-02-01T12:54:45.296Z,99029.12
2018-02-01T12:55:51.208Z,99024.75
2018-02-01T12:56:57.094Z,99024.26
2018-02-01T12:58:02.994Z,99016.05
2018-02-01T12:59:08.905Z,99017.58
2018-02-01T13:00:14.723Z,99022.62
2018-02-01T13:01:20.584Z,99019.05
2018-02-01T13:02:26.416Z,99013.82
2018-02-01T13:03:32.277Z,99012.06
2018-02-01T13:04:38.159Z,99019.66
2018-02-01T13:05:44.252Z,99022.83
2018-02-01T13:06:50.093Z,99027.88
2018-02-01T13:07:55.939Z,99020.25
2018-02-01T13:09:01.833Z,99023.55
2018-02-01T13:10:07.669Z,99028.83
2018-02-01T13:11:13.533Z,99027.52
2018-02-01T13:12:19.416Z,99033.95